createdAt,value
2022-12-26T10:34:47.465Z,103.00
2022-12-26T10:35:51.048Z,84.60
2022-12-26T10:37:07.548Z,73.60
2022-12-26T10:38:40.524Z,72.70
2022-12-26T10:39:54.465Z,68.30
2022-12-26T10:41:03.775Z,65.10
2022-12-26T10:42:28.018Z,64.30
2022-12-26T10:43:34.194Z,62.00
2022-12-26T10:44:43.373Z,59.60
2022-12-26T10:46:16.539Z,61.50
2022-12-26T10:47:41.270Z,59.80
2022-12-26T10:48:45.046Z,59.00
2022-12-26T10:49:49.559Z,57.80
2022-12-26T10:50:53.126Z,56.60
2022-12-26T10:51:59.488Z,55.40
2022-12-26T10:53:06.953Z,55.60
2022-12-26T10:54:17.984Z,53.80
2022-12-26T10:55:31.424Z,55.60
2022-12-26T10:56:35.248Z,56.40
2022-12-26T10:57:43.581Z,55.80
2022-12-26T10:58:58.597Z,53.90
2022-12-26T11:00:04.630Z,49.70
2022-12-26T11:01:34.741Z,54.00
2022-12-26T11:02:38.025Z,52.30
2022-12-26T11:03:57.894Z,52.60
2022-12-26T11:05:15.917Z,58.30
2022-12-26T11:06:42.160Z,52.60
2022-12-26T11:07:53.871Z,57.20
2022-12-26T11:08:57.338Z,52.80
2022-12-26T11:10:02.175Z,53.80
2022-12-26T11:11:10.116Z,56.20
2022-12-26T11:12:27.757Z,59.30
2022-12-26T11:13:36.315Z,54.00
2022-12-26T11:14:44.543Z,55.10
2022-12-26T11:15:53.265Z,54.10
2022-12-26T11:17:01.535Z,50.20
2022-12-26T11:18:19.351Z,51.40
2022-12-26T11:19:35.574Z,49.90
2022-12-26T11:20:38.668Z,50.20
2022-12-26T11:21:41.610Z,45.60
2022-12-26T11:22:46.336Z,48.10
2022-12-26T11:24:08.632Z,46.40
2022-12-26T11:25:17.734Z,48.70
2022-12-26T11:26:32.490Z,47.20
2022-12-26T11:27:40.532Z,47.60
2022-12-26T11:28:45.688Z,47.70
2022-12-26T11:29:48.714Z,50.10
2022-12-26T11:30:52.615Z,50.10
2022-12-26T11:32:03.119Z,54.20
2022-12-26T11:33:26.925Z,52.40
2022-12-26T11:34:46.213Z,51.00
2022-12-26T11:36:03.112Z,47.90
2022-12-26T11:37:07.530Z,52.30
2022-12-26T11:38:39.025Z,51.20
2022-12-26T11:39:51.519Z,52.30
2022-12-26T11:41:13.427Z,47.40
2022-12-26T11:42:21.630Z,47.60
2022-12-26T11:43:27.203Z,45.10
2022-12-26T11:44:41.137Z,45.00
2022-12-26T11:45:50.217Z,43.60
2022-12-26T11:47:21.277Z,41.40
2022-12-26T11:48:26.686Z,43.80
2022-12-26T11:49:47.509Z,44.70
2022-12-26T11:50:51.546Z,42.00
2022-12-26T11:51:59.210Z,42.60
2022-12-26T11:53:02.673Z,42.20
2022-12-26T11:54:28.314Z,41.80
2022-12-26T11:55:34.923Z,41.90
2022-12-26T11:56:38.022Z,41.30
2022-12-26T11:57:40.925Z,40.30
2022-12-26T11:58:44.660Z,39.00
2022-12-26T11:59:49.609Z,39.00
2022-12-26T12:00:54.442Z,38.30
2022-12-26T12:02:18.936Z,38.20
2022-12-26T12:03:49.734Z,39.20
2022-12-26T12:04:58.445Z,39.60
2022-12-26T12:06:27.222Z,38.30
2022-12-26T12:07:51.828Z,40.30
2022-12-26T12:09:29.213Z,40.70
2022-12-26T12:10:48.678Z,40.70
2022-12-26T12:12:30.198Z,40.30
2022-12-26T12:13:50.637Z,42.70
2022-12-26T12:14:57.401Z,36.10
2022-12-26T12:16:12.848Z,36.70
2022-12-26T12:17:28.714Z,33.10
2022-12-26T12:18:49.835Z,25.60
2022-12-26T12:20:27.177Z,20.00
2022-12-26T12:21:43.412Z,19.30
2022-12-26T12:23:09.572Z,15.00
2022-12-26T12:24:44.604Z,15.00
2022-12-26T12:26:22.175Z,10.20
2022-12-26T12:27:54.652Z,14.50
2022-12-26T12:29:25.887Z,10.60
2022-12-26T12:31:00.725Z,12.20
2022-12-26T12:32:10.875Z,9.70
2022-12-26T12:33:23.012Z,9.50
2022-12-26T12:35:15.833Z,9.30
2022-12-26T12:36:19.075Z,8.60
2022-12-26T12:37:22.325Z,9.10
2022-12-26T12:38:31.172Z,8.90
2022-12-26T12:40:00.197Z,9.60
2022-12-26T12:41:36.664Z,7.10
2022-12-26T12:42:54.068Z,7.00
2022-12-26T12:44:34.883Z,8.00
2022-12-26T12:46:56.975Z,7.60
2022-12-26T12:48:44.804Z,7.70
2022-12-26T12:50:06.181Z,6.50
2022-12-26T12:51:15.106Z,5.80
2022-12-26T12:52:34.946Z,4.90
2022-12-26T12:53:58.395Z,5.80
2022-12-26T12:55:11.242Z,4.70
2022-12-26T12:56:14.184Z,4.90
2022-12-26T12:57:33.984Z,4.20
2022-12-26T12:59:02.255Z,5.20
2022-12-26T13:00:19.759Z,4.50
2022-12-26T13:01:43.034Z,3.50
2022-12-26T13:03:11.212Z,3.60
2022-12-26T13:04:17.439Z,3.80
2022-12-26T13:05:44.830Z,3.50
2022-12-26T13:06:56.901Z,3.00
2022-12-26T13:08:21.030Z,2.70
2022-12-26T13:09:34.408Z,2.60
2022-12-26T13:10:47.854Z,2.60
2022-12-26T13:12:04.985Z,2.40
2022-12-26T13:13:25.091Z,2.70
2022-12-26T13:14:47.077Z,2.40
2022-12-26T13:15:55.501Z,2.50
2022-12-26T13:17:10.093Z,2.70
2022-12-26T13:18:18.788Z,2.60
2022-12-26T13:19:29.355Z,2.40
2022-12-26T13:21:46.177Z,2.50
2022-12-26T13:23:13.296Z,2.60
2022-12-26T13:24:26.519Z,3.10
2022-12-26T13:25:36.779Z,3.10
2022-12-26T13:26:47.132Z,2.80
2022-12-26T13:27:55.021Z,5.10
2022-12-26T13:29:28.914Z,4.50
2022-12-26T13:30:34.664Z,3.00
2022-12-26T13:31:41.659Z,6.20
2022-12-26T13:32:46.734Z,3.70
2022-12-26T13:33:50.306Z,4.60
2022-12-26T13:34:56.184Z,3.50
2022-12-26T13:36:02.020Z,3.50
2022-12-26T13:37:05.268Z,5.50
2022-12-26T13:38:08.452Z,4.90
2022-12-26T13:39:25.972Z,4.00
2022-12-26T13:40:31.652Z,4.90
2022-12-26T13:41:54.502Z,4.60
2022-12-26T13:43:25.904Z,3.90
2022-12-26T13:44:29.474Z,6.90
2022-12-26T13:45:38.264Z,4.90
2022-12-26T13:46:41.313Z,5.30
2022-12-26T13:47:44.346Z,6.90
2022-12-26T13:48:56.272Z,5.30
2022-12-26T13:50:33.348Z,6.50
2022-12-26T13:51:49.087Z,5.00
2022-12-26T13:52:52.440Z,5.10
2022-12-26T13:54:03.294Z,6.00
2022-12-26T13:55:26.371Z,5.90
2022-12-26T13:56:29.449Z,4.40
2022-12-26T13:57:37.273Z,6.30
2022-12-26T13:59:09.773Z,4.10
2022-12-26T14:00:45.998Z,4.30
2022-12-26T14:02:19.548Z,5.40
2022-12-26T14:03:29.620Z,6.00
2022-12-26T14:04:56.205Z,8.40
2022-12-26T14:06:35.874Z,6.10
2022-12-26T14:08:08.242Z,7.10
2022-12-26T14:09:29.440Z,7.40
2022-12-26T14:10:45.847Z,7.80
2022-12-26T14:12:23.503Z,6.70
2022-12-26T14:13:54.799Z,7.60
2022-12-26T14:15:23.691Z,7.90
2022-12-26T14:16:57.227Z,7.20
2022-12-26T14:18:09.105Z,8.60
2022-12-26T14:19:39.086Z,8.80
2022-12-26T14:20:48.988Z,9.10
2022-12-26T14:22:04.860Z,9.20
2022-12-26T14:23:42.733Z,10.70
2022-12-26T14:25:04.786Z,10.60
2022-12-26T14:26:41.404Z,10.80
2022-12-26T14:28:10.825Z,11.20
2022-12-26T14:29:34.719Z,11.00
2022-12-26T14:30:56.736Z,11.50
2022-12-26T14:32:38.004Z,7.80
2022-12-26T14:34:01.246Z,6.00
2022-12-26T14:35:29.549Z,5.80
2022-12-26T14:36:52.694Z,6.60
2022-12-26T14:38:17.989Z,5.60
2022-12-26T14:39:55.401Z,4.40
2022-12-26T14:41:04.149Z,4.00
2022-12-26T14:42:26.069Z,4.60
2022-12-26T14:43:41.257Z,5.70
2022-12-26T14:44:44.763Z,4.90
2022-12-26T14:45:52.866Z,4.40
2022-12-26T14:46:59.603Z,3.80
2022-12-26T14:48:18.212Z,4.10
2022-12-26T14:49:35.166Z,4.80
2022-12-26T14:50:44.079Z,5.50
2022-12-26T14:51:47.456Z,9.60
2022-12-26T14:52:50.911Z,11.30
2022-12-26T14:54:22.465Z,12.40
2022-12-26T14:55:49.095Z,13.70
2022-12-26T14:56:52.916Z,15.30
2022-12-26T14:57:56.618Z,11.70
2022-12-26T14:59:26.481Z,14.50
2022-12-26T15:00:30.841Z,9.80
2022-12-26T15:01:34.101Z,10.60
2022-12-26T15:02:42.135Z,11.40
2022-12-26T15:04:04.184Z,6.60
2022-12-26T15:05:26.252Z,7.70
2022-12-26T15:06:57.479Z,8.20
2022-12-26T15:08:27.610Z,9.90
2022-12-26T15:10:05.178Z,10.40
2022-12-26T15:11:33.313Z,11.70
2022-12-26T15:12:46.217Z,11.70
2022-12-26T15:14:27.549Z,10.30
2022-12-26T15:16:49.557Z,9.20
2022-12-26T15:18:30.392Z,5.70
2022-12-26T15:21:09.209Z,4.00
2022-12-26T15:22:27.823Z,5.90
2022-12-26T15:23:33.780Z,5.40
2022-12-26T15:25:18.160Z,5.40
2022-12-26T15:26:40.404Z,5.90
2022-12-26T15:27:59.531Z,4.80
2022-12-26T15:29:37.023Z,4.40
2022-12-26T15:30:42.976Z,4.20
2022-12-26T15:31:56.351Z,8.20
2022-12-26T15:33:18.254Z,5.20
2022-12-26T15:34:39.421Z,4.40
2022-12-26T15:35:51.003Z,4.50
2022-12-26T15:37:03.270Z,5.70
2022-12-26T15:38:15.479Z,5.70
2022-12-26T15:39:48.930Z,5.00
2022-12-26T15:41:24.463Z,6.50
2022-12-26T15:42:45.332Z,6.40
2022-12-26T15:43:56.671Z,5.80
2022-12-26T15:45:27.938Z,7.60
2022-12-26T15:46:58.241Z,7.30
2022-12-26T15:48:41.695Z,8.10
2022-12-26T15:50:23.370Z,8.40
2022-12-26T15:51:35.579Z,8.70
2022-12-26T15:53:00.215Z,7.90
2022-12-26T15:54:27.847Z,13.70
2022-12-26T15:55:55.182Z,7.20
2022-12-26T15:57:04.398Z,6.50
2022-12-26T15:58:29.530Z,8.20
2022-12-26T16:00:13.567Z,8.60
2022-12-26T16:01:44.744Z,6.50
2022-12-26T16:02:50.324Z,6.00
2022-12-26T16:03:56.924Z,6.70
2022-12-26T16:05:46.843Z,5.70
2022-12-26T16:06:55.925Z,7.60
2022-12-26T16:08:30.219Z,6.00
2022-12-26T16:09:48.122Z,6.80
2022-12-26T16:11:10.582Z,6.90
2022-12-26T16:12:30.663Z,6.80
2022-12-26T16:13:34.082Z,6.40
2022-12-26T16:14:39.691Z,7.00
2022-12-26T16:15:52.683Z,7.50
2022-12-26T16:17:13.643Z,7.70
2022-12-26T16:18:31.026Z,7.80
2022-12-26T16:19:34.510Z,7.80
2022-12-26T16:20:56.562Z,8.80
2022-12-26T16:22:23.669Z,8.20
2022-12-26T16:23:31.785Z,7.70
2022-12-26T16:24:40.746Z,8.70
2022-12-26T16:25:51.956Z,9.10
2022-12-26T16:26:55.718Z,9.00
2022-12-26T16:28:06.325Z,8.80
2022-12-26T16:29:19.464Z,7.80
2022-12-26T16:30:26.406Z,9.50
2022-12-26T16:31:34.241Z,8.70
2022-12-26T16:32:41.293Z,6.90
2022-12-26T16:33:45.765Z,7.80
2022-12-26T16:34:49.657Z,7.30
2022-12-26T16:35:56.258Z,7.60
2022-12-26T16:37:04.456Z,9.40
2022-12-26T16:38:13.678Z,7.10
2022-12-26T16:39:23.479Z,7.10
2022-12-26T16:40:34.535Z,7.20
